Saturday, January 20, 2018, 8:27 AM EST
Back to Local

KHZY, Ashtabula County Airport

Location: Jefferson, OH, United States Lat: 41.783
Local Time: 8:27 AM EST (13:27 GMT) Lon: -80.7
Time Zone: US/Eastern Elev: 925 ft

Show me the last for .
Show Decoded

2018-01-20 07:53 METAR KHZY 201253Z AUTO 22011KT 10SM CLR 01/M06 A2993 RMK AO2 SLP142 T00111056 =
2018-01-20 06:53 METAR KHZY 201153Z AUTO 21012KT 10SM CLR 01/M05 A2991 RMK AO2 SLP135 T00111050
                 10017 20006 53012 =
2018-01-20 05:53 METAR KHZY 201053Z AUTO 21012G21KT 10SM CLR 01/M05 A2989 RMK AO2 SLP129
                 T00111050 =
2018-01-20 04:53 METAR KHZY 200953Z AUTO 21011KT 10SM CLR 01/M05 A2987 RMK AO2 SLP124 T00111050 =
2018-01-20 03:53 METAR KHZY 200853Z AUTO 21012KT 10SM CLR 01/M06 A2987 RMK AO2 SLP122 T00111056
                 50009 =
2018-01-20 01:53 METAR KHZY 200653Z AUTO 21009KT 10SM CLR 01/M07 A2986 RMK AO2 SLP120 T00061067 =
2018-01-20 00:53 METAR KHZY 200553Z AUTO 20011KT 10SM CLR 01/M07 A2984 RMK AO2 SLP114 T00111067
                 10011 20006 55009 =
2018-01-19 23:53 METAR KHZY 200453Z AUTO 19010KT 10SM CLR 01/M07 A2984 RMK AO2 SLP112 T00111072
                 400221067 =
2018-01-19 22:53 METAR KHZY 200353Z AUTO 19016G21KT 10SM CLR 01/M08 A2986 RMK AO2 SLP121
                 T00111078 =
2018-01-19 21:53 METAR KHZY 200253Z AUTO 19016KT 10SM CLR 01/M08 A2987 RMK AO2 SLP124 T00111078
                 58014 =
2018-01-19 20:53 METAR KHZY 200153Z AUTO 20014KT 10SM CLR 01/M08 A2989 RMK AO2 SLP132 T00111078 =
2018-01-19 19:53 METAR KHZY 200053Z AUTO 21014G20KT 10SM CLR 01/M08 A2989 RMK AO2 SLP134
                 T00111078 =
2018-01-19 18:53 METAR KHZY 192353Z AUTO 20017G24KT 10SM CLR 01/M08 A2991 RMK AO2 SLP139
                 T00111078 10022 20000 50001 =
2018-01-19 17:53 METAR KHZY 192253Z AUTO 21012KT 10SM CLR 01/M08 A2992 RMK AO2 SLP144 T00111083 =
2018-01-19 16:53 METAR KHZY 192153Z AUTO 20013KT 10SM CLR 02/M08 A2992 RMK AO2 SLP140 T00171083 =
2018-01-19 15:53 METAR KHZY 192053Z AUTO 20012G20KT 10SM CLR 02/M08 A2991 RMK AO2 SLP137
                 T00171078 56019 =
2018-01-19 14:53 METAR KHZY 191953Z AUTO 21016KT 10SM CLR 01/M08 A2991 RMK AO2 SLP139 T00111083 =
2018-01-19 13:53 METAR KHZY 191853Z AUTO 22015G21KT 10SM CLR 01/M09 A2994 RMK AO2 SLP147
                 T00061089 =
2018-01-19 12:53 METAR KHZY 191753Z AUTO 20013KT 10SM CLR 00/M09 A2997 RMK AO2 SLP157 T00001089
                 10000 21067 58020 =
2018-01-19 11:53 METAR KHZY 191653Z AUTO 20010KT 10SM CLR M02/M09 A3000 RMK AO2 SLP171 T10171089
                 =
2018-01-19 10:53 METAR KHZY 191553Z AUTO 21014KT 10SM CLR M03/M10 A3002 RMK AO2 SLP178 T10331100
                 =
2018-01-19 09:53 METAR KHZY 191453Z AUTO 21013KT 10SM CLR M04/M11 A3003 RMK AO2 SLP179 T10441106
                 51001 =
2018-01-19 08:53 METAR KHZY 191353Z AUTO 20011KT 10SM CLR M06/M12 A3002 RMK AO2 SLP177 T10611117
                 =

Support USWX by starting your Amazon purchase here.